Time;durP1;ratioP1;P1;durP2;ratioP2;P2;SDS_P1;SDS_P2;PMS_P1;PMS_P2;Temp;Humidity;BMP_temperature;BMP_pressure;BME280_temperature;BME280_humidity;BME280_pressure;Samples;Min_cycle;Max_cycle;Signal;HPM_P1;HPM_P2
2023/12/01 00:02:21;;;;;;;39.72;25.63;;;2.80;99.90;;;;;;5081343;28;20055;-77
2023/12/01 00:04:47;;;;;;;39.65;24.05;;;2.80;99.90;;;;;;5059614;28;20040;-75
2023/12/01 00:07:14;;;;;;;36.78;22.60;;;3.20;99.90;;;;;;5025871;28;20047;-75
2023/12/01 00:09:40;;;;;;;40.10;23.65;;;2.80;99.90;;;;;;5059848;28;20047;-77
2023/12/01 00:12:06;;;;;;;43.38;25.70;;;2.80;99.90;;;;;;5060742;28;20064;-75
2023/12/01 00:14:32;;;;;;;41.83;26.45;;;2.80;99.90;;;;;;5075768;28;20036;-75
2023/12/01 00:16:57;;;;;;;40.97;24.98;;;2.70;99.90;;;;;;5049724;28;20024;-78
2023/12/01 00:19:23;;;;;;;40.65;25.67;;;3.60;99.90;;;;;;5080213;28;20092;-77
2023/12/01 00:21:49;;;;;;;41.65;25.13;;;2.60;99.90;;;;;;5078244;28;20059;-76
2023/12/01 00:24:15;;;;;;;36.47;22.98;;;2.60;99.90;;;;;;5062231;28;20373;-78
2023/12/01 00:26:41;;;;;;;40.53;25.02;;;2.70;99.90;;;;;;5063346;28;20122;-77
2023/12/01 00:29:07;;;;;;;39.53;23.80;;;2.70;99.90;;;;;;5062961;28;20053;-76
2023/12/01 00:31:33;;;;;;;39.15;24.20;;;2.70;99.90;;;;;;5061865;28;20094;-80
2023/12/01 00:34:00;;;;;;;37.92;22.92;;;3.30;99.90;;;;;;5076896;28;20074;-77
2023/12/01 00:36:25;;;;;;;38.47;23.02;;;2.70;99.90;;;;;;5080694;28;20028;-75
2023/12/01 00:38:51;;;;;;;42.20;23.85;;;2.80;99.90;;;;;;5061562;28;20112;-79
2023/12/01 00:41:17;;;;;;;40.03;22.95;;;2.60;99.90;;;;;;5060402;28;20068;-78
2023/12/01 00:43:43;;;;;;;40.60;23.75;;;2.30;99.90;;;;;;5079188;28;20477;-81
2023/12/01 00:46:09;;;;;;;37.88;23.23;;;2.80;99.90;;;;;;5058161;28;20048;-77
2023/12/01 00:48:34;;;;;;;39.08;23.35;;;3.20;99.90;;;;;;5081905;28;20090;-81
2023/12/01 00:51:01;;;;;;;41.45;23.40;;;2.10;99.90;;;;;;5057764;28;20032;-78
2023/12/01 00:53:27;;;;;;;40.97;23.25;;;2.20;99.90;;;;;;5078076;28;20075;-79
2023/12/01 00:55:53;;;;;;;43.38;24.13;;;2.90;99.90;;;;;;5045306;28;20125;-79
2023/12/01 00:58:19;;;;;;;39.25;22.70;;;2.80;99.90;;;;;;5026307;28;20639;-80
2023/12/01 01:00:45;;;;;;;41.10;22.83;;;2.90;99.90;;;;;;5064810;28;20043;-79
2023/12/01 01:03:10;;;;;;;45.10;23.85;;;2.30;99.90;;;;;;5060603;28;20033;-77
2023/12/01 01:05:36;;;;;;;47.15;25.08;;;2.20;99.90;;;;;;5059348;28;20032;-77
2023/12/01 01:08:02;;;;;;;43.72;23.75;;;3.00;99.90;;;;;;5076074;28;20106;-81
2023/12/01 01:10:28;;;;;;;47.13;25.35;;;3.10;99.90;;;;;;5042703;28;20041;-78
2023/12/01 01:12:54;;;;;;;51.25;26.23;;;2.10;99.90;;;;;;5060818;28;20377;-77
2023/12/01 01:15:19;;;;;;;53.00;26.55;;;2.90;99.90;;;;;;5079097;28;20412;-78
2023/12/01 01:17:45;;;;;;;50.70;26.33;;;2.80;99.90;;;;;;5031427;28;20029;-78
2023/12/01 01:20:12;;;;;;;61.10;28.63;;;3.00;99.90;;;;;;5062400;28;20055;-79
2023/12/01 01:22:38;;;;;;;59.63;28.25;;;2.20;99.90;;;;;;5061365;28;20451;-76
2023/12/01 01:25:07;;;;;;;58.35;27.92;;;2.20;99.90;;;;;;5063078;28;20044;-78
2023/12/01 01:27:33;;;;;;;55.08;28.58;;;2.00;99.90;;;;;;5076395;28;20036;-78
2023/12/01 01:29:58;;;;;;;54.70;26.17;;;2.90;99.90;;;;;;5043417;28;20044;-80
2023/12/01 01:32:24;;;;;;;57.80;28.00;;;2.90;99.90;;;;;;5060803;28;20119;-78
2023/12/01 01:34:50;;;;;;;60.80;29.42;;;3.00;99.90;;;;;;5077971;28;20125;-78
2023/12/01 01:37:16;;;;;;;56.58;27.75;;;1.90;99.90;;;;;;5058978;28;20040;-80
2023/12/01 01:39:42;;;;;;;52.78;27.98;;;2.90;99.90;;;;;;5043696;28;20047;-79
2023/12/01 01:42:08;;;;;;;58.85;27.50;;;2.00;99.90;;;;;;5061875;28;20040;-80
2023/12/01 01:44:33;;;;;;;54.00;27.42;;;2.60;99.90;;;;;;5058979;28;20055;-79
2023/12/01 01:47:01;;;;;;;53.47;26.73;;;2.60;99.90;;;;;;5077922;28;20040;-79
2023/12/01 01:49:27;;;;;;;57.80;28.30;;;2.90;99.90;;;;;;5075277;28;20040;-80
2023/12/01 01:51:59;;;;;;;61.47;29.33;;;2.80;99.90;;;;;;5077146;28;20033;-79
2023/12/01 01:54:26;;;;;;;61.63;30.05;;;3.00;99.90;;;;;;5044998;28;20064;-81
2023/12/01 01:56:52;;;;;;;53.83;27.45;;;2.20;99.90;;;;;;5075471;28;20094;-80
2023/12/01 01:59:22;;;;;;;64.57;30.33;;;2.80;99.90;;;;;;5044094;28;20558;-78
2023/12/01 02:01:51;;;;;;;58.22;28.45;;;2.80;99.90;;;;;;5044890;28;20043;-78
2023/12/01 02:04:17;;;;;;;53.65;26.75;;;2.10;99.90;;;;;;5075160;28;20481;-83
2023/12/01 02:06:46;;;;;;;58.63;28.40;;;2.90;99.90;;;;;;5080788;28;20441;-77
2023/12/01 02:09:16;;;;;;;53.20;26.70;;;2.10;99.90;;;;;;5041561;28;20129;-76
2023/12/01 02:11:42;;;;;;;58.47;28.08;;;1.90;99.90;;;;;;5043259;28;20098;-80
2023/12/01 02:14:08;;;;;;;56.22;27.38;;;2.70;99.90;;;;;;5078130;28;20055;-77
2023/12/01 02:16:34;;;;;;;47.38;24.00;;;1.90;99.90;;;;;;5062370;28;20040;-79
2023/12/01 02:18:59;;;;;;;49.97;23.90;;;2.60;99.90;;;;;;5077168;28;20139;-82
2023/12/01 02:21:33;;;;;;;43.05;22.85;;;2.50;99.90;;;;;;5058944;28;20392;-77
2023/12/01 02:23:59;;;;;;;41.92;22.48;;;2.30;99.90;;;;;;5078422;28;20119;-79
2023/12/01 02:26:25;;;;;;;40.63;22.38;;;2.00;99.90;;;;;;5061005;28;20119;-77
2023/12/01 02:28:51;;;;;;;41.72;21.55;;;2.20;99.90;;;;;;5043750;28;20147;-80
2023/12/01 02:31:16;;;;;;;40.38;22.33;;;2.30;99.90;;;;;;5046953;28;20035;-80
2023/12/01 02:33:42;;;;;;;42.15;22.85;;;1.90;99.90;;;;;;5081659;28;20043;-76
2023/12/01 02:36:11;;;;;;;43.03;22.13;;;2.20;99.90;;;;;;5086215;28;20040;-77
2023/12/01 02:38:36;;;;;;;37.83;20.38;;;2.40;99.90;;;;;;5063652;28;20032;-80
2023/12/01 02:41:02;;;;;;;38.38;21.20;;;1.60;99.90;;;;;;5082364;28;20089;-80
2023/12/01 02:43:28;;;;;;;36.58;20.70;;;1.50;99.90;;;;;;5049031;28;20184;-79
2023/12/01 02:45:55;;;;;;;40.08;21.85;;;1.70;99.90;;;;;;5064293;28;20033;-76
2023/12/01 02:48:21;;;;;;;39.00;21.65;;;2.10;99.90;;;;;;5064299;28;20036;-81
2023/12/01 02:50:46;;;;;;;38.33;21.00;;;2.90;99.90;;;;;;5060758;28;20047;-78
2023/12/01 02:53:12;;;;;;;38.75;20.58;;;1.30;99.90;;;;;;5049966;28;20510;-75
2023/12/01 02:55:38;;;;;;;38.90;20.85;;;1.40;99.90;;;;;;5080155;28;20055;-78
2023/12/01 02:58:04;;;;;;;37.63;20.83;;;2.60;99.90;;;;;;5081657;28;20457;-80
2023/12/01 03:00:29;;;;;;;37.25;20.13;;;1.50;99.90;;;;;;5063456;28;20048;-77
2023/12/01 03:02:55;;;;;;;37.22;19.92;;;1.20;99.90;;;;;;5066083;28;20040;-77
2023/12/01 03:05:22;;;;;;;38.67;20.85;;;1.70;99.90;;;;;;5062727;28;20381;-80
2023/12/01 03:07:48;;;;;;;36.67;20.00;;;1.10;99.90;;;;;;5062097;28;20244;-78
2023/12/01 03:10:14;;;;;;;41.65;22.88;;;1.30;99.90;;;;;;5077670;28;20128;-76
2023/12/01 03:12:42;;;;;;;43.25;23.08;;;1.50;99.90;;;;;;5060356;28;20040;-78
2023/12/01 03:15:10;;;;;;;43.17;22.63;;;1.60;99.90;;;;;;5078653;28;20381;-80
2023/12/01 03:17:37;;;;;;;53.88;26.15;;;1.00;99.90;;;;;;5045230;28;20381;-78
2023/12/01 03:20:09;;;;;;;47.50;26.15;;;1.00;99.90;;;;;;5043933;28;20392;-80
2023/12/01 03:22:35;;;;;;;52.72;26.38;;;1.60;99.90;;;;;;5080398;28;20048;-76
2023/12/01 03:25:02;;;;;;;50.83;24.88;;;1.60;99.90;;;;;;5079715;28;20037;-77
2023/12/01 03:27:28;;;;;;;48.65;24.92;;;0.90;99.90;;;;;;5079402;28;20102;-80
2023/12/01 03:29:54;;;;;;;45.38;23.20;;;1.30;99.90;;;;;;5062125;28;20112;-79
2023/12/01 03:32:20;;;;;;;47.42;24.35;;;1.00;99.90;;;;;;5076294;28;20040;-80
2023/12/01 03:34:45;;;;;;;47.67;24.30;;;1.00;99.90;;;;;;5045104;28;20036;-82
2023/12/01 03:37:11;;;;;;;49.85;25.23;;;1.20;99.90;;;;;;5046093;28;20645;-77
2023/12/01 03:39:37;;;;;;;50.85;25.40;;;1.50;99.90;;;;;;5062289;28;20123;-77
2023/12/01 03:42:04;;;;;;;49.47;25.65;;;1.70;99.90;;;;;;5062300;28;20373;-78
2023/12/01 03:44:30;;;;;;;46.45;25.02;;;1.50;99.90;;;;;;5061679;28;20131;-81
2023/12/01 03:46:55;;;;;;;46.47;24.33;;;0.80;99.90;;;;;;5079634;28;20174;-77
2023/12/01 03:49:21;;;;;;;50.67;24.83;;;1.50;99.90;;;;;;5062364;28;20097;-77
2023/12/01 03:51:47;;;;;;;48.40;24.77;;;1.40;99.90;;;;;;5045729;28;20511;-80
2023/12/01 03:54:13;;;;;;;46.53;24.20;;;1.30;99.90;;;;;;5044589;28;20119;-80
2023/12/01 03:56:39;;;;;;;46.40;23.33;;;1.50;99.90;;;;;;5079205;28;20039;-80
2023/12/01 03:59:09;;;;;;;43.80;22.30;;;0.80;99.90;;;;;;5042921;28;20040;-80
2023/12/01 04:01:39;;;;;;;44.47;23.75;;;1.20;99.90;;;;;;5076366;28;20056;-79
2023/12/01 04:04:05;;;;;;;45.85;24.23;;;0.80;99.90;;;;;;5063431;28;20059;-78
2023/12/01 04:06:34;;;;;;;42.33;23.40;;;1.30;99.90;;;;;;5077775;28;20190;-79
2023/12/01 04:09:05;;;;;;;44.65;23.05;;;1.20;99.90;;;;;;5063529;28;20488;-79
2023/12/01 04:11:32;;;;;;;41.63;21.60;;;1.10;99.90;;;;;;5062308;28;20056;-80
2023/12/01 04:13:58;;;;;;;39.03;20.55;;;1.40;99.90;;;;;;5042915;28;20036;-78
2023/12/01 04:16:24;;;;;;;40.50;21.95;;;1.20;99.90;;;;;;5077750;28;20059;-81
2023/12/01 04:18:53;;;;;;;44.20;22.52;;;1.90;99.90;;;;;;5078642;28;20098;-78
2023/12/01 04:21:19;;;;;;;43.58;22.15;;;0.90;99.90;;;;;;5063676;28;20075;-78
2023/12/01 04:23:45;;;;;;;39.72;21.48;;;0.50;99.90;;;;;;5080283;28;20047;-82
2023/12/01 04:26:12;;;;;;;40.03;21.23;;;1.40;99.90;;;;;;5062114;28;20063;-79
2023/12/01 04:28:38;;;;;;;39.78;21.02;;;1.20;99.90;;;;;;5078112;28;20066;-78
2023/12/01 04:31:05;;;;;;;36.25;19.77;;;1.20;99.90;;;;;;5079265;28;20028;-78
2023/12/01 04:33:34;;;;;;;39.17;20.23;;;0.70;99.90;;;;;;5077890;28;20072;-83
2023/12/01 04:35:59;;;;;;;39.55;21.27;;;0.60;99.90;;;;;;5077830;28;20456;-82
2023/12/01 04:38:25;;;;;;;37.50;19.92;;;0.60;99.90;;;;;;5059685;28;20051;-79
2023/12/01 04:40:54;;;;;;;36.90;19.75;;;1.30;99.90;;;;;;5060350;28;20036;-83
2023/12/01 04:43:20;;;;;;;41.75;19.10;;;0.70;99.90;;;;;;5046524;28;20041;-80
2023/12/01 04:45:45;;;;;;;36.33;18.45;;;0.70;99.90;;;;;;5078565;28;20442;-82
2023/12/01 04:48:11;;;;;;;37.10;19.55;;;0.80;99.90;;;;;;5061521;28;20043;-82
2023/12/01 04:50:47;;;;;;;39.92;20.52;;;1.80;99.90;;;;;;5062778;28;20062;-82
2023/12/01 04:53:12;;;;;;;37.75;19.73;;;0.70;99.90;;;;;;5078661;28;20105;-80
2023/12/01 04:55:38;;;;;;;35.20;18.63;;;0.80;99.90;;;;;;5060015;28;20040;-81
2023/12/01 04:58:04;;;;;;;37.20;19.70;;;1.30;99.90;;;;;;5047418;28;20032;-81
2023/12/01 05:00:30;;;;;;;36.95;18.27;;;0.70;99.90;;;;;;5063666;28;20036;-84
2023/12/01 05:03:14;;;;;;;36.47;19.52;;;0.50;99.90;;;;;;5029685;28;20504;-81
2023/12/01 05:05:41;;;;;;;37.60;19.20;;;0.70;99.90;;;;;;5078960;28;20113;-79
2023/12/01 05:08:08;;;;;;;40.60;21.08;;;1.20;99.90;;;;;;5047305;28;20036;-82
2023/12/01 05:10:36;;;;;;;32.97;18.65;;;1.20;99.90;;;;;;5044982;28;20114;-80
2023/12/01 05:13:04;;;;;;;36.35;19.58;;;1.50;99.90;;;;;;5080115;28;20083;-80
2023/12/01 05:15:32;;;;;;;36.40;19.55;;;0.70;99.90;;;;;;5075605;28;20068;-81
2023/12/01 05:18:06;;;;;;;38.97;18.70;;;1.20;99.90;;;;;;5062356;28;20032;-81
2023/12/01 05:20:32;;;;;;;37.50;19.08;;;0.70;99.90;;;;;;5073528;28;20048;-81
2023/12/01 05:23:00;;;;;;;33.58;17.88;;;1.70;99.90;;;;;;5064608;28;20507;-83
2023/12/01 05:25:27;;;;;;;33.88;18.88;;;1.70;99.90;;;;;;5062289;28;20040;-82
2023/12/01 05:27:57;;;;;;;39.97;20.27;;;1.20;99.90;;;;;;5044530;28;20082;-80
2023/12/01 05:30:25;;;;;;;38.30;20.42;;;1.10;99.90;;;;;;5076249;28;20037;-82
2023/12/01 05:32:53;;;;;;;38.67;19.55;;;0.60;99.90;;;;;;5047469;28;20124;-81
2023/12/01 05:35:19;;;;;;;38.72;20.88;;;0.50;99.90;;;;;;5075487;28;20039;-83
2023/12/01 05:37:50;;;;;;;37.75;20.42;;;0.60;99.90;;;;;;5059720;28;20036;-83
2023/12/01 05:40:20;;;;;;;41.53;21.30;;;1.20;99.90;;;;;;5061774;28;20115;-83
2023/12/01 05:42:48;;;;;;;36.83;20.35;;;0.60;99.90;;;;;;5081248;28;20044;-82
2023/12/01 05:45:15;;;;;;;37.08;19.38;;;0.50;99.90;;;;;;5078644;28;20063;-83
2023/12/01 05:47:59;;;;;;;38.88;20.15;;;0.90;99.90;;;;;;5043543;28;20483;-85
2023/12/01 05:50:28;;;;;;;36.17;19.20;;;1.00;99.90;;;;;;5058749;28;20044;-83
2023/12/01 05:52:56;;;;;;;35.75;19.55;;;1.20;99.90;;;;;;5063304;28;20109;-82
2023/12/01 05:55:35;;;;;;;35.22;19.35;;;1.10;99.90;;;;;;5061713;28;20040;-84
2023/12/01 05:58:11;;;;;;;38.80;20.92;;;0.40;99.90;;;;;;5041683;28;20033;-83
2023/12/01 06:00:38;;;;;;;34.25;19.73;;;0.40;99.90;;;;;;5075657;28;20064;-84
2023/12/01 06:03:06;;;;;;;37.58;20.55;;;0.50;99.90;;;;;;5060550;28;20111;-82
2023/12/01 06:05:33;;;;;;;37.45;19.13;;;0.90;99.90;;;;;;5066768;28;20043;-83
2023/12/01 06:08:01;;;;;;;39.17;21.67;;;2.50;99.90;;;;;;5083697;28;20040;-83
2023/12/01 06:10:29;;;;;;;35.92;19.77;;;0.60;99.90;;;;;;5068250;28;20036;-84
2023/12/01 06:12:55;;;;;;;39.15;21.45;;;1.40;99.90;;;;;;5062702;28;20037;-83
2023/12/01 06:15:24;;;;;;;38.10;20.48;;;0.70;99.90;;;;;;5036580;28;20042;-83
2023/12/01 06:18:00;;;;;;;33.28;19.25;;;2.00;99.90;;;;;;5066585;28;20043;-85
2023/12/01 06:20:26;;;;;;;37.03;19.85;;;0.40;99.90;;;;;;5063582;28;20036;-84
2023/12/01 06:22:56;;;;;;;35.95;19.85;;;1.00;99.90;;;;;;5049359;28;20036;-83
2023/12/01 06:25:27;;;;;;;42.17;22.25;;;1.30;99.90;;;;;;5067802;28;20052;-82
2023/12/01 06:28:03;;;;;;;36.10;21.00;;;0.90;99.90;;;;;;5064730;28;20124;-83
2023/12/01 06:30:34;;;;;;;36.25;21.15;;;0.90;99.90;;;;;;5047481;28;20037;-83
2023/12/01 06:33:01;;;;;;;36.00;20.08;;;0.90;99.90;;;;;;5068238;28;20127;-81
2023/12/01 06:35:27;;;;;;;36.45;20.20;;;0.40;99.90;;;;;;5061764;28;20040;-82
2023/12/01 06:37:53;;;;;;;37.63;21.08;;;0.70;99.90;;;;;;5051430;28;20086;-82
2023/12/01 06:40:20;;;;;;;36.90;21.05;;;0.20;99.90;;;;;;5031639;28;20127;-81
2023/12/01 06:42:52;;;;;;;41.38;21.05;;;1.10;99.90;;;;;;5067405;28;20040;-82
2023/12/01 06:45:20;;;;;;;41.38;21.83;;;0.30;99.90;;;;;;5082703;28;20051;-84
2023/12/01 06:47:50;;;;;;;39.78;21.63;;;0.70;99.90;;;;;;5063416;28;20040;-83
2023/12/01 06:50:21;;;;;;;40.15;21.08;;;0.70;99.90;;;;;;5067159;28;20032;-85
2023/12/01 06:52:51;;;;;;;38.83;21.05;;;0.80;99.90;;;;;;5067172;28;20508;-85
2023/12/01 06:55:19;;;;;;;37.10;20.63;;;0.60;99.90;;;;;;5064697;28;20123;-82
2023/12/01 06:57:47;;;;;;;39.67;22.15;;;0.10;99.90;;;;;;5070028;28;20048;-86
2023/12/01 07:02:56;;;;;;;37.70;20.92;;;0.10;99.90;;;;;;5081593;28;20059;-82
2023/12/01 07:05:23;;;;;;;40.20;21.00;;;0.50;99.90;;;;;;5063401;28;20111;-82
2023/12/01 07:07:49;;;;;;;38.65;20.75;;;0.50;99.90;;;;;;5071963;28;20646;-83
2023/12/01 07:10:15;;;;;;;36.80;21.30;;;0.80;99.90;;;;;;5057929;28;20111;-83
2023/12/01 07:12:42;;;;;;;35.70;21.00;;;1.00;99.90;;;;;;5053196;28;20097;-82
2023/12/01 07:15:20;;;;;;;38.53;20.85;;;0.20;99.90;;;;;;5046904;28;20104;-83
2023/12/01 07:17:51;;;;;;;44.70;29.20;;;-0.10;99.90;;;;;;5043651;28;20044;-79
2023/12/01 07:20:18;;;;;;;44.38;27.85;;;-0.10;99.90;;;;;;5062668;28;20052;-85
2023/12/01 07:22:45;;;;;;;44.53;29.10;;;0.50;99.90;;;;;;5065055;28;20530;-86
2023/12/01 07:25:21;;;;;;;39.47;23.05;;;1.40;99.90;;;;;;5061852;28;20055;-85
2023/12/01 07:27:57;;;;;;;38.50;20.35;;;0.40;99.90;;;;;;5063707;28;20036;-84
2023/12/01 07:30:24;;;;;;;38.17;20.60;;;-0.20;99.90;;;;;;5075568;28;20043;-86
2023/12/01 07:32:50;;;;;;;37.70;21.38;;;0.60;99.90;;;;;;5065706;28;20081;-86
2023/12/01 07:35:16;;;;;;;34.45;18.85;;;0.90;99.90;;;;;;5061079;28;20040;-85
2023/12/01 07:37:46;;;;;;;37.95;20.23;;;0.40;99.90;;;;;;5065712;28;20071;-85
2023/12/01 07:40:19;;;;;;;31.55;18.33;;;0.40;99.90;;;;;;5067632;28;20032;-83
2023/12/01 07:42:45;;;;;;;34.08;19.45;;;0.30;99.90;;;;;;5051585;28;20499;-83
2023/12/01 07:45:17;;;;;;;36.53;19.95;;;-1.80;99.90;;;;;;5055792;28;20036;-85
2023/12/01 07:47:43;;;;;;;37.90;20.50;;;1.50;99.90;;;;;;5076742;28;20047;-84
2023/12/01 07:50:09;;;;;;;35.38;20.02;;;-0.30;99.90;;;;;;5055009;28;20028;-86
2023/12/01 07:52:35;;;;;;;40.42;20.27;;;0.20;99.90;;;;;;5057256;28;20460;-84
2023/12/01 07:55:00;;;;;;;36.75;20.30;;;0.30;99.90;;;;;;5050757;28;20086;-83
2023/12/01 07:57:27;;;;;;;36.83;20.35;;;0.30;99.90;;;;;;5053459;28;20093;-84
2023/12/01 07:59:53;;;;;;;34.17;18.98;;;0.10;99.90;;;;;;5064450;28;20101;-84
2023/12/01 08:02:19;;;;;;;37.35;20.15;;;-0.10;99.90;;;;;;5047481;28;20439;-83
2023/12/01 08:04:44;;;;;;;37.17;19.65;;;0.30;99.90;;;;;;5060360;28;20138;-84
2023/12/01 08:07:11;;;;;;;39.25;20.92;;;-0.10;99.90;;;;;;5054339;28;20047;-84
2023/12/01 08:09:37;;;;;;;33.72;19.13;;;0.10;99.90;;;;;;5047967;28;20441;-83
2023/12/01 08:12:04;;;;;;;37.22;19.67;;;1.60;99.90;;;;;;5067520;28;20047;-83
2023/12/01 08:14:30;;;;;;;36.28;20.75;;;0.50;99.90;;;;;;5064049;28;20124;-83
2023/12/01 08:16:55;;;;;;;36.35;20.15;;;0.00;99.90;;;;;;5034643;28;20115;-84
2023/12/01 08:19:22;;;;;;;40.75;23.27;;;0.00;99.90;;;;;;5049174;28;20127;-83
2023/12/01 08:21:48;;;;;;;37.95;22.45;;;0.20;99.90;;;;;;5044125;28;20044;-83
2023/12/01 08:24:17;;;;;;;34.92;20.70;;;1.10;99.90;;;;;;5050733;28;20044;-86
2023/12/01 08:26:43;;;;;;;34.30;20.65;;;1.50;99.90;;;;;;5070360;28;20075;-84
2023/12/01 08:29:09;;;;;;;31.75;20.08;;;0.70;99.90;;;;;;5073695;28;20078;-85
2023/12/01 08:31:39;;;;;;;33.45;20.48;;;1.30;99.90;;;;;;5069957;28;20481;-83
2023/12/01 08:34:08;;;;;;;31.50;19.60;;;1.30;99.90;;;;;;5028530;28;20460;-84
2023/12/01 08:36:37;;;;;;;31.67;19.95;;;1.50;99.90;;;;;;5081506;28;20083;-83
2023/12/01 08:39:04;;;;;;;32.13;20.33;;;1.40;99.90;;;;;;5071047;28;20047;-83
2023/12/01 08:41:30;;;;;;;31.17;20.13;;;1.40;99.90;;;;;;5073980;28;20046;-83
2023/12/01 08:43:56;;;;;;;34.17;21.40;;;0.90;99.90;;;;;;5086580;28;20043;-84
2023/12/01 08:46:24;;;;;;;32.65;20.23;;;1.20;99.90;;;;;;5068972;28;20071;-84
2023/12/01 08:48:50;;;;;;;34.90;21.60;;;2.00;99.90;;;;;;5076251;28;20044;-83
2023/12/01 08:51:16;;;;;;;34.70;20.67;;;0.90;99.90;;;;;;5060439;28;20033;-84
2023/12/01 08:53:42;;;;;;;32.97;20.38;;;1.60;99.90;;;;;;5060259;28;20040;-84
2023/12/01 08:56:13;;;;;;;31.63;20.17;;;1.60;99.90;;;;;;5079344;28;20072;-83
2023/12/01 08:58:39;;;;;;;31.48;20.17;;;1.60;99.90;;;;;;5041582;28;20090;-83
2023/12/01 09:01:05;;;;;;;31.90;20.67;;;1.40;99.90;;;;;;5048177;28;20032;-84
2023/12/01 09:03:31;;;;;;;33.20;20.48;;;1.50;99.90;;;;;;5037929;28;20032;-85
2023/12/01 09:05:57;;;;;;;32.85;20.10;;;1.40;99.90;;;;;;5054920;28;20047;-83
2023/12/01 09:08:23;;;;;;;32.10;20.38;;;1.20;99.90;;;;;;5048596;28;20040;-83
2023/12/01 09:10:48;;;;;;;30.02;18.98;;;2.20;99.90;;;;;;5067857;28;20055;-83
2023/12/01 09:13:15;;;;;;;31.00;20.35;;;2.00;99.90;;;;;;5072254;28;20650;-84
2023/12/01 09:15:41;;;;;;;30.67;19.98;;;1.70;99.90;;;;;;5078440;28;20662;-85
2023/12/01 09:18:07;;;;;;;26.85;18.02;;;2.90;99.90;;;;;;5048406;28;20048;-83
2023/12/01 09:20:33;;;;;;;32.08;19.63;;;3.40;99.90;;;;;;5054997;28;20123;-84
2023/12/01 09:22:58;;;;;;;26.05;17.58;;;3.70;99.90;;;;;;5052594;28;20066;-83
2023/12/01 09:25:24;;;;;;;27.23;18.38;;;4.10;99.90;;;;;;5044332;28;20036;-85
2023/12/01 09:27:50;;;;;;;29.00;19.08;;;3.90;99.90;;;;;;5054996;28;20048;-86
2023/12/01 09:30:16;;;;;;;25.52;18.10;;;4.10;99.90;;;;;;5065023;28;20071;-83
2023/12/01 09:32:45;;;;;;;24.17;16.73;;;4.90;99.90;;;;;;5071264;28;20036;-83
2023/12/01 09:35:11;;;;;;;24.85;17.23;;;4.80;99.90;;;;;;5086754;28;20494;-83
2023/12/01 09:37:37;;;;;;;25.05;17.70;;;4.20;99.90;;;;;;5071363;28;20040;-85
2023/12/01 09:40:06;;;;;;;24.67;18.40;;;4.90;99.90;;;;;;5067525;28;20096;-83
2023/12/01 09:42:33;;;;;;;23.95;17.88;;;4.60;99.90;;;;;;5057778;28;20040;-82
2023/12/01 09:45:00;;;;;;;24.88;17.45;;;4.60;99.90;;;;;;5070388;28;20965;-81
2023/12/01 09:47:30;;;;;;;24.67;17.85;;;5.30;99.90;;;;;;5063883;28;20040;-83
2023/12/01 09:49:56;;;;;;;24.00;17.70;;;5.70;99.90;;;;;;5077756;28;20137;-83
2023/12/01 09:52:22;;;;;;;22.83;17.60;;;5.60;99.90;;;;;;5072818;28;20036;-83
2023/12/01 09:54:47;;;;;;;24.38;17.85;;;6.00;99.90;;;;;;5054612;28;20047;-82
2023/12/01 09:57:13;;;;;;;23.85;17.88;;;5.50;99.90;;;;;;5069035;28;20074;-84
2023/12/01 09:59:39;;;;;;;23.58;17.50;;;5.60;99.90;;;;;;5039949;28;20050;-83
2023/12/01 10:02:05;;;;;;;22.83;17.05;;;4.80;99.90;;;;;;5039430;28;20380;-84
2023/12/01 10:04:35;;;;;;;22.65;17.55;;;4.90;99.90;;;;;;5070281;28;20427;-85
2023/12/01 10:07:03;;;;;;;24.40;18.63;;;4.40;99.90;;;;;;5055144;28;20752;-83
2023/12/01 10:09:33;;;;;;;24.75;18.10;;;3.90;99.90;;;;;;5039198;28;20090;-83
2023/12/01 10:12:09;;;;;;;22.35;17.58;;;3.60;99.90;;;;;;5079902;28;20048;-83
2023/12/01 10:14:36;;;;;;;25.77;18.25;;;3.00;99.90;;;;;;5070053;28;20036;-83
2023/12/01 10:17:07;;;;;;;24.95;18.60;;;3.50;99.90;;;;;;5064549;28;20151;-82
2023/12/01 10:19:42;;;;;;;23.45;17.85;;;3.00;99.90;;;;;;5037368;28;20053;-82
2023/12/01 10:22:09;;;;;;;22.08;16.75;;;3.40;99.90;;;;;;5064092;28;20048;-83
2023/12/01 10:24:35;;;;;;;25.73;18.35;;;3.30;99.90;;;;;;5051218;28;21614;-83
2023/12/01 10:27:05;;;;;;;24.05;18.00;;;3.60;99.90;;;;;;5064876;28;20037;-85
2023/12/01 10:29:35;;;;;;;22.05;16.58;;;3.70;99.90;;;;;;5020846;28;20396;-85
2023/12/01 10:32:03;;;;;;;24.92;17.77;;;3.60;99.90;;;;;;5068681;28;20160;-85
2023/12/01 10:34:29;;;;;;;22.17;16.75;;;4.30;99.90;;;;;;5072332;28;20058;-84
2023/12/01 10:36:56;;;;;;;23.60;17.13;;;4.60;99.90;;;;;;5069736;28;20047;-85
2023/12/01 10:39:29;;;;;;;23.95;17.33;;;5.10;99.90;;;;;;5046311;28;20086;-85
2023/12/01 10:41:56;;;;;;;23.45;18.73;;;5.60;99.90;;;;;;5057776;28;20134;-83
2023/12/01 10:44:26;;;;;;;22.42;17.70;;;4.70;99.90;;;;;;5073395;28;20051;-84
2023/12/01 10:46:53;;;;;;;25.75;18.42;;;5.50;99.90;;;;;;5069062;28;20036;-84
2023/12/01 10:49:20;;;;;;;24.73;19.65;;;5.70;99.90;;;;;;5037420;28;20078;-85
2023/12/01 10:51:52;;;;;;;24.20;18.40;;;4.90;99.90;;;;;;5072157;28;20063;-82
2023/12/01 10:54:21;;;;;;;23.00;17.92;;;4.50;99.90;;;;;;5065382;28;20388;-83
2023/12/01 10:57:26;;;;;;;24.08;18.85;;;4.80;99.90;;;;;;5076598;28;20040;-84
2023/12/01 10:59:56;;;;;;;23.50;17.80;;;4.60;99.90;;;;;;5063343;28;20037;-83
2023/12/01 11:02:25;;;;;;;26.30;19.75;;;4.60;99.90;;;;;;5062054;28;20364;-83
2023/12/01 11:04:51;;;;;;;24.50;19.15;;;4.00;99.90;;;;;;5071337;28;20101;-83
2023/12/01 11:07:45;;;;;;;26.00;19.88;;;4.20;99.90;;;;;;5053153;28;20044;-83
2023/12/01 11:10:42;;;;;;;23.67;17.95;;;4.60;99.90;;;;;;5063461;28;20059;-83
2023/12/01 11:13:36;;;;;;;27.17;18.73;;;4.00;99.90;;;;;;5067159;28;20549;-83
2023/12/01 11:16:02;;;;;;;25.45;18.65;;;4.00;99.90;;;;;;5069652;28;20454;-83
2023/12/01 11:18:28;;;;;;;24.88;18.67;;;3.90;99.90;;;;;;5053955;28;20105;-84
2023/12/01 11:20:55;;;;;;;23.90;18.42;;;4.20;99.90;;;;;;5068224;28;20044;-81
2023/12/01 11:23:21;;;;;;;26.27;18.88;;;3.80;99.90;;;;;;5051504;28;20121;-79
2023/12/01 11:25:55;;;;;;;25.73;18.63;;;4.00;99.90;;;;;;5086046;28;20094;-79
2023/12/01 11:31:42;;;;;;;26.70;19.15;;;3.30;99.90;;;;;;5055912;28;20396;-79
2023/12/01 11:34:02;;;;;;;26.45;18.27;;;3.90;99.90;;;;;;5077354;28;20416;-80
2023/12/01 11:36:35;;;;;;;27.30;18.60;;;3.50;99.90;;;;;;5067264;28;20217;-78
2023/12/01 11:41:58;;;;;;;28.30;18.75;;;4.00;99.90;;;;;;5074371;28;20052;-81
2023/12/01 11:44:37;;;;;;;26.73;18.65;;;3.60;99.90;;;;;;5059883;28;20138;-79
2023/12/01 11:47:04;;;;;;;28.92;18.73;;;3.40;99.90;;;;;;5057108;28;20040;-82
2023/12/01 11:49:39;;;;;;;28.85;20.67;;;3.80;99.90;;;;;;5073736;28;20042;-80
2023/12/01 11:52:07;;;;;;;29.25;20.60;;;3.80;99.90;;;;;;5079241;28;20074;-80
2023/12/01 11:54:36;;;;;;;28.88;19.25;;;3.50;99.90;;;;;;5061889;28;20044;-79
2023/12/01 11:57:17;;;;;;;27.05;18.92;;;3.70;99.90;;;;;;5068580;28;20040;-79
2023/12/01 11:59:44;;;;;;;30.77;20.45;;;3.10;99.90;;;;;;5055621;28;20373;-78
2023/12/01 12:02:16;;;;;;;29.85;19.73;;;3.80;99.90;;;;;;5062006;28;20040;-77
2023/12/01 12:04:48;;;;;;;28.42;18.83;;;3.90;99.90;;;;;;5058570;28;20175;-79
2023/12/01 12:07:21;;;;;;;26.02;18.23;;;3.90;99.90;;;;;;5064091;28;20043;-81
2023/12/01 12:09:52;;;;;;;28.52;17.55;;;3.50;99.90;;;;;;5067204;28;20393;-81
2023/12/01 12:12:21;;;;;;;27.20;18.85;;;3.30;99.90;;;;;;5080820;28;20066;-82
2023/12/01 12:14:47;;;;;;;27.25;18.92;;;3.30;99.90;;;;;;5058176;28;20040;-79
2023/12/01 12:17:12;;;;;;;27.77;19.10;;;3.30;99.90;;;;;;5080922;28;20039;-77
2023/12/01 12:19:42;;;;;;;29.55;19.42;;;3.90;99.90;;;;;;5085238;28;20126;-81
2023/12/01 12:22:08;;;;;;;30.23;19.85;;;3.60;99.90;;;;;;5085941;28;20125;-79
2023/12/01 12:24:34;;;;;;;29.73;20.02;;;3.60;99.90;;;;;;5074960;28;20040;-78
2023/12/01 12:27:00;;;;;;;29.95;19.48;;;3.30;99.90;;;;;;5064078;28;20092;-77
2023/12/01 12:29:26;;;;;;;31.40;20.27;;;3.20;99.90;;;;;;5073295;28;20040;-78
2023/12/01 12:31:51;;;;;;;29.02;19.52;;;3.60;99.90;;;;;;5056133;28;20500;-82
2023/12/01 12:34:18;;;;;;;26.33;17.77;;;3.90;99.90;;;;;;5068513;28;20162;-79
2023/12/01 12:36:46;;;;;;;32.45;19.40;;;3.70;99.90;;;;;;5066226;28;20388;-79
2023/12/01 12:39:16;;;;;;;30.52;19.40;;;3.70;99.90;;;;;;5071925;28;20522;-80
2023/12/01 12:41:59;;;;;;;25.90;17.85;;;2.90;99.90;;;;;;5089501;28;20047;-78
2023/12/01 12:44:29;;;;;;;28.98;18.65;;;2.90;99.90;;;;;;5084509;28;20045;-78
2023/12/01 12:47:01;;;;;;;29.27;19.27;;;2.90;99.90;;;;;;5080688;28;20101;-77
2023/12/01 12:49:30;;;;;;;31.48;19.90;;;3.00;99.90;;;;;;5079437;28;20393;-76